TRA6015 EHRD-LSGG
Flight info
| Callsign | TRA6015 |
|---|---|
| Flight time | 1h 17m |
| Altitude | 37000 |
| Route | WOODY N872 NIK M624 REMBA DCT SUTAL DCT GTQ DCT POGOL DCT LASAT DCT MOROK Z24 AKITO |
| Aircraft | A21N/M-SDE2E3FGHIRWXY/LB1 |
Departure
| Time | 2026-05-07 10:01 |
|---|---|
| Airport | Rotterdam The Hague Airport (EHRD) |
Arrival
| Time | 2026-05-07 11:18 |
|---|---|
| Airport | Geneva International Airport (LSGG) |
| Time | Latitude | Longitude | Altitude | Speed | Heading |
|---|---|---|---|---|---|
| 2026-05-07 09:45 | 51.95164 | 4.43351 | 5 ft | 0 kts | 327° |
| 2026-05-07 09:46 | 51.95165 | 4.43351 | 4 ft | 0 kts | 327° |
| 2026-05-07 09:57 | 51.95176 | 4.43338 | 4 ft | 7 kts | 324° |
| 2026-05-07 09:58 | 51.95190 | 4.43274 | 4 ft | 6 kts | 255° |
| 2026-05-07 09:58 | 51.95165 | 4.43207 | 4 ft | 9 kts | 236° |
| 2026-05-07 09:58 | 51.95134 | 4.43108 | 4 ft | 10 kts | 246° |
| 2026-05-07 09:58 | 51.95114 | 4.43036 | 4 ft | 0 kts | 250° |
| 2026-05-07 09:59 | 51.95114 | 4.43035 | 4 ft | 0 kts | 250° |
| 2026-05-07 09:59 | 51.95109 | 4.43000 | 4 ft | 8 kts | 265° |
| 2026-05-07 09:59 | 51.95140 | 4.42920 | 4 ft | 9 kts | 324° |
| 2026-05-07 09:59 | 51.95195 | 4.42865 | 5 ft | 10 kts | 342° |
| 2026-05-07 10:00 | 51.95251 | 4.42927 | 6 ft | 17 kts | 57° |
| 2026-05-07 10:00 | 51.95440 | 4.43401 | 3 ft | 83 kts | 57° |
| 2026-05-07 10:00 | 51.95886 | 4.44516 | 3 ft | 151 kts | 57° |
| 2026-05-07 10:00 | 51.96494 | 4.46050 | 476 ft | 162 kts | 57° |
| 2026-05-07 10:01 | 51.97088 | 4.47589 | 1332 ft | 160 kts | 57° |
| 2026-05-07 10:01 | 51.97627 | 4.49252 | 1940 ft | 181 kts | 62° |
| 2026-05-07 10:01 | 51.98246 | 4.51218 | 2393 ft | 208 kts | 62° |
| 2026-05-07 10:01 | 51.98954 | 4.53473 | 2846 ft | 238 kts | 62° |
| 2026-05-07 10:02 | 51.99719 | 4.55927 | 3680 ft | 247 kts | 63° |
| 2026-05-07 10:02 | 52.00502 | 4.58464 | 4518 ft | 256 kts | 67° |
| 2026-05-07 10:02 | 52.00748 | 4.61297 | 4974 ft | 259 kts | 99° |
| 2026-05-07 10:02 | 51.99976 | 4.63912 | 5078 ft | 262 kts | 133° |
| 2026-05-07 10:03 | 51.98422 | 4.65398 | 5097 ft | 263 kts | 162° |
| 2026-05-07 10:03 | 51.96609 | 4.66025 | 5545 ft | 270 kts | 174° |
| 2026-05-07 10:03 | 51.94730 | 4.65849 | 6555 ft | 271 kts | 190° |
| 2026-05-07 10:03 | 51.92901 | 4.65111 | 7567 ft | 272 kts | 196° |
| 2026-05-07 10:04 | 51.91083 | 4.64203 | 8532 ft | 275 kts | 198° |
| 2026-05-07 10:04 | 51.89256 | 4.63230 | 9500 ft | 278 kts | 198° |
| 2026-05-07 10:04 | 51.87407 | 4.62225 | 10389 ft | 285 kts | 199° |
| 2026-05-07 10:04 | 51.85465 | 4.61160 | 10840 ft | 306 kts | 199° |
| 2026-05-07 10:05 | 51.83366 | 4.60003 | 11209 ft | 330 kts | 200° |
| 2026-05-07 10:05 | 51.81130 | 4.58771 | 11637 ft | 349 kts | 199° |
| 2026-05-07 10:05 | 51.78794 | 4.57488 | 12344 ft | 358 kts | 199° |
| 2026-05-07 10:05 | 51.76420 | 4.56184 | 13192 ft | 364 kts | 200° |
| 2026-05-07 10:06 | 51.74003 | 4.54857 | 14034 ft | 369 kts | 200° |
| 2026-05-07 10:06 | 51.71559 | 4.53516 | 14788 ft | 373 kts | 200° |
| 2026-05-07 10:06 | 51.69085 | 4.52161 | 15579 ft | 377 kts | 200° |
| 2026-05-07 10:06 | 51.66571 | 4.50785 | 16358 ft | 381 kts | 200° |
| 2026-05-07 10:07 | 51.64066 | 4.49415 | 17105 ft | 385 kts | 199° |
| 2026-05-07 10:07 | 51.61510 | 4.48020 | 17833 ft | 389 kts | 199° |
| 2026-05-07 10:07 | 51.58929 | 4.46614 | 18516 ft | 394 kts | 199° |
| 2026-05-07 10:07 | 51.56323 | 4.45194 | 19132 ft | 397 kts | 199° |
| 2026-05-07 10:08 | 51.53692 | 4.43762 | 19745 ft | 401 kts | 199° |
| 2026-05-07 10:08 | 51.51038 | 4.42321 | 20345 ft | 405 kts | 199° |
| 2026-05-07 10:08 | 51.48360 | 4.40868 | 20946 ft | 408 kts | 200° |
| 2026-05-07 10:08 | 51.45657 | 4.39404 | 21567 ft | 411 kts | 200° |
| 2026-05-07 10:09 | 51.42935 | 4.37931 | 22165 ft | 415 kts | 200° |
| 2026-05-07 10:09 | 51.40223 | 4.36343 | 22721 ft | 418 kts | 203° |
| 2026-05-07 10:09 | 51.37540 | 4.34499 | 23262 ft | 421 kts | 205° |
| 2026-05-07 10:09 | 51.34880 | 4.32518 | 23768 ft | 424 kts | 206° |
| 2026-05-07 10:10 | 51.32213 | 4.30459 | 24204 ft | 427 kts | 207° |
| 2026-05-07 10:10 | 51.29534 | 4.28370 | 24653 ft | 429 kts | 207° |
| 2026-05-07 10:10 | 51.26843 | 4.26287 | 25090 ft | 432 kts | 206° |
| 2026-05-07 10:10 | 51.24035 | 4.24543 | 25512 ft | 435 kts | 198° |
| 2026-05-07 10:11 | 51.21070 | 4.23475 | 25924 ft | 439 kts | 189° |
| 2026-05-07 10:11 | 51.18011 | 4.23243 | 26325 ft | 443 kts | 178° |
| 2026-05-07 10:11 | 51.14949 | 4.23939 | 26711 ft | 447 kts | 167° |
| 2026-05-07 10:11 | 51.11997 | 4.25585 | 27086 ft | 452 kts | 156° |
| 2026-05-07 10:12 | 51.09315 | 4.28097 | 27446 ft | 456 kts | 145° |
| 2026-05-07 10:12 | 51.06791 | 4.31178 | 27811 ft | 459 kts | 142° |
| 2026-05-07 10:12 | 51.04341 | 4.34447 | 28174 ft | 461 kts | 140° |
| 2026-05-07 10:12 | 51.01927 | 4.37790 | 28696 ft | 459 kts | 140° |
| 2026-05-07 10:13 | 50.99530 | 4.41133 | 29198 ft | 458 kts | 140° |
| 2026-05-07 10:13 | 50.97133 | 4.44454 | 29677 ft | 457 kts | 140° |
| 2026-05-07 10:13 | 50.94733 | 4.47740 | 30121 ft | 456 kts | 140° |
| 2026-05-07 10:13 | 50.92326 | 4.51002 | 30498 ft | 455 kts | 141° |
| 2026-05-07 10:14 | 50.89932 | 4.54272 | 30877 ft | 454 kts | 139° |
| 2026-05-07 10:14 | 50.87628 | 4.57680 | 31247 ft | 453 kts | 137° |
| 2026-05-07 10:14 | 50.85382 | 4.61186 | 31606 ft | 453 kts | 136° |
| 2026-05-07 10:14 | 50.83170 | 4.64718 | 31957 ft | 452 kts | 136° |
| 2026-05-07 10:15 | 50.80960 | 4.68263 | 32308 ft | 451 kts | 136° |
| 2026-05-07 10:15 | 50.78755 | 4.71782 | 32624 ft | 450 kts | 136° |
| 2026-05-07 10:15 | 50.76545 | 4.75283 | 32953 ft | 450 kts | 136° |
| 2026-05-07 10:15 | 50.74329 | 4.78771 | 33265 ft | 449 kts | 136° |
| 2026-05-07 10:16 | 50.72110 | 4.82243 | 33578 ft | 449 kts | 136° |
| 2026-05-07 10:16 | 50.69891 | 4.85702 | 33893 ft | 448 kts | 136° |
| 2026-05-07 10:16 | 50.67673 | 4.89150 | 34170 ft | 447 kts | 137° |
| 2026-05-07 10:16 | 50.65354 | 4.92415 | 34390 ft | 447 kts | 141° |
| 2026-05-07 10:17 | 50.62974 | 4.95555 | 34621 ft | 446 kts | 141° |
| 2026-05-07 10:17 | 50.60572 | 4.98652 | 34811 ft | 446 kts | 142° |
| 2026-05-07 10:17 | 50.58154 | 5.01732 | 35019 ft | 447 kts | 142° |
| 2026-05-07 10:17 | 50.55733 | 5.04795 | 35209 ft | 447 kts | 142° |
| 2026-05-07 10:18 | 50.53311 | 5.07854 | 35393 ft | 447 kts | 142° |
| 2026-05-07 10:18 | 50.50886 | 5.10914 | 35579 ft | 447 kts | 142° |
| 2026-05-07 10:18 | 50.48460 | 5.13975 | 35719 ft | 449 kts | 142° |
| 2026-05-07 10:18 | 50.46022 | 5.17051 | 35877 ft | 449 kts | 142° |
| 2026-05-07 10:19 | 50.43587 | 5.20123 | 36057 ft | 449 kts | 142° |
| 2026-05-07 10:19 | 50.41153 | 5.23191 | 36235 ft | 449 kts | 142° |
| 2026-05-07 10:19 | 50.38717 | 5.26258 | 36405 ft | 449 kts | 142° |
| 2026-05-07 10:19 | 50.36281 | 5.29321 | 36570 ft | 449 kts | 142° |
| 2026-05-07 10:20 | 50.33840 | 5.32385 | 36729 ft | 450 kts | 142° |
| 2026-05-07 10:20 | 50.31398 | 5.35446 | 36885 ft | 450 kts | 142° |
| 2026-05-07 10:20 | 50.28957 | 5.38502 | 37018 ft | 450 kts | 142° |
| 2026-05-07 10:21 | 50.24049 | 5.44632 | 37049 ft | 452 kts | 142° |
| 2026-05-07 10:21 | 50.19142 | 5.50746 | 37048 ft | 451 kts | 142° |
| 2026-05-07 10:22 | 50.14233 | 5.56846 | 37048 ft | 451 kts | 142° |
| 2026-05-07 10:22 | 50.09318 | 5.62935 | 37047 ft | 451 kts | 142° |
| 2026-05-07 10:23 | 50.04400 | 5.69013 | 37036 ft | 451 kts | 142° |
| 2026-05-07 10:23 | 49.99477 | 5.75081 | 37043 ft | 452 kts | 142° |
| 2026-05-07 10:24 | 49.94554 | 5.81132 | 37044 ft | 452 kts | 142° |
| 2026-05-07 10:24 | 49.89624 | 5.87175 | 37040 ft | 452 kts | 143° |
| 2026-05-07 10:25 | 49.84695 | 5.93202 | 37043 ft | 452 kts | 143° |
| 2026-05-07 10:25 | 49.79757 | 5.99223 | 37038 ft | 452 kts | 143° |
| 2026-05-07 10:26 | 49.74815 | 6.05233 | 37044 ft | 452 kts | 143° |
| 2026-05-07 10:26 | 49.69870 | 6.11230 | 37047 ft | 452 kts | 143° |
| 2026-05-07 10:27 | 49.64921 | 6.17216 | 37047 ft | 452 kts | 143° |
| 2026-05-07 10:27 | 49.60006 | 6.23146 | 37048 ft | 452 kts | 143° |
| 2026-05-07 10:28 | 49.55050 | 6.29110 | 37044 ft | 452 kts | 143° |
| 2026-05-07 10:28 | 49.50088 | 6.35064 | 37045 ft | 453 kts | 143° |
| 2026-05-07 10:29 | 49.44819 | 6.40285 | 37041 ft | 450 kts | 155° |
| 2026-05-07 10:29 | 49.39158 | 6.44384 | 37032 ft | 450 kts | 157° |
| 2026-05-07 10:30 | 49.31489 | 6.49548 | 37031 ft | 450 kts | 158° |
| 2026-05-07 10:30 | 49.25751 | 6.53393 | 37031 ft | 450 kts | 158° |
| 2026-05-07 10:31 | 49.20019 | 6.57254 | 37030 ft | 450 kts | 158° |
| 2026-05-07 10:31 | 49.14288 | 6.61117 | 37036 ft | 450 kts | 158° |
| 2026-05-07 10:32 | 49.08554 | 6.64975 | 37043 ft | 450 kts | 158° |
| 2026-05-07 10:32 | 49.02818 | 6.68820 | 37028 ft | 450 kts | 159° |
| 2026-05-07 10:33 | 48.96818 | 6.71238 | 37038 ft | 445 kts | 177° |
| 2026-05-07 10:33 | 48.90683 | 6.71453 | 37044 ft | 444 kts | 182° |
| 2026-05-07 10:34 | 48.84499 | 6.71188 | 37043 ft | 444 kts | 184° |
| 2026-05-07 10:34 | 48.78320 | 6.70863 | 37036 ft | 444 kts | 184° |
| 2026-05-07 10:35 | 48.72140 | 6.70584 | 37043 ft | 444 kts | 183° |
| 2026-05-07 10:35 | 48.65962 | 6.70337 | 37041 ft | 444 kts | 183° |
| 2026-05-07 10:36 | 48.59779 | 6.70101 | 37040 ft | 444 kts | 183° |
| 2026-05-07 10:36 | 48.53602 | 6.69864 | 37041 ft | 444 kts | 183° |
| 2026-05-07 10:37 | 48.47421 | 6.69625 | 37043 ft | 444 kts | 183° |
| 2026-05-07 10:37 | 48.41246 | 6.69388 | 37041 ft | 444 kts | 183° |
| 2026-05-07 10:38 | 48.35065 | 6.69150 | 37051 ft | 444 kts | 183° |
| 2026-05-07 10:38 | 48.28888 | 6.68912 | 37044 ft | 444 kts | 183° |
| 2026-05-07 10:39 | 48.22716 | 6.68675 | 37045 ft | 444 kts | 184° |
| 2026-05-07 10:39 | 48.16539 | 6.68439 | 37049 ft | 444 kts | 184° |
| 2026-05-07 10:40 | 48.10364 | 6.68203 | 37045 ft | 444 kts | 184° |
| 2026-05-07 10:40 | 48.04189 | 6.67968 | 37046 ft | 444 kts | 184° |
| 2026-05-07 10:41 | 47.98010 | 6.67734 | 37051 ft | 444 kts | 184° |
| 2026-05-07 10:41 | 47.91836 | 6.67500 | 37048 ft | 444 kts | 184° |
| 2026-05-07 10:42 | 47.85659 | 6.67267 | 37048 ft | 444 kts | 184° |
| 2026-05-07 10:42 | 47.79487 | 6.67035 | 37044 ft | 444 kts | 184° |
| 2026-05-07 10:43 | 47.73309 | 6.66804 | 37050 ft | 444 kts | 184° |
| 2026-05-07 10:43 | 47.67141 | 6.66573 | 37050 ft | 443 kts | 184° |
| 2026-05-07 10:44 | 47.60977 | 6.66343 | 37048 ft | 443 kts | 184° |
| 2026-05-07 10:44 | 47.54810 | 6.66113 | 37046 ft | 443 kts | 184° |
| 2026-05-07 10:45 | 47.48685 | 6.65886 | 37046 ft | 443 kts | 184° |
| 2026-05-07 10:45 | 47.42521 | 6.65657 | 36996 ft | 443 kts | 184° |
| 2026-05-07 10:46 | 47.39400 | 6.65541 | 36733 ft | 443 kts | 184° |
| 2026-05-07 10:46 | 47.36358 | 6.65428 | 36481 ft | 443 kts | 184° |
| 2026-05-07 10:46 | 47.33271 | 6.65314 | 36233 ft | 444 kts | 184° |
| 2026-05-07 10:46 | 47.30187 | 6.65201 | 35985 ft | 444 kts | 184° |
| 2026-05-07 10:47 | 47.27099 | 6.65083 | 35728 ft | 444 kts | 185° |
| 2026-05-07 10:47 | 47.24046 | 6.64631 | 35311 ft | 439 kts | 194° |
| 2026-05-07 10:47 | 47.21146 | 6.63318 | 34619 ft | 434 kts | 207° |
| 2026-05-07 10:47 | 47.18546 | 6.61114 | 33927 ft | 430 kts | 220° |
| 2026-05-07 10:48 | 47.16245 | 6.58320 | 33175 ft | 428 kts | 224° |
| 2026-05-07 10:48 | 47.14030 | 6.55399 | 32480 ft | 427 kts | 224° |
| 2026-05-07 10:48 | 47.11827 | 6.52473 | 31777 ft | 427 kts | 224° |
| 2026-05-07 10:48 | 47.09623 | 6.49557 | 31060 ft | 427 kts | 223° |
| 2026-05-07 10:49 | 47.07411 | 6.46647 | 30327 ft | 428 kts | 223° |
| 2026-05-07 10:49 | 47.05188 | 6.43734 | 29478 ft | 429 kts | 223° |
| 2026-05-07 10:49 | 47.02965 | 6.40831 | 28691 ft | 427 kts | 223° |
| 2026-05-07 10:49 | 47.00750 | 6.37943 | 27911 ft | 425 kts | 223° |
| 2026-05-07 10:50 | 46.98541 | 6.35067 | 27115 ft | 425 kts | 223° |
| 2026-05-07 10:50 | 46.96341 | 6.32207 | 26545 ft | 419 kts | 223° |
| 2026-05-07 10:50 | 46.94178 | 6.29400 | 26006 ft | 413 kts | 223° |
| 2026-05-07 10:50 | 46.92043 | 6.26630 | 25428 ft | 407 kts | 223° |
| 2026-05-07 10:51 | 46.89937 | 6.23894 | 24893 ft | 403 kts | 223° |
| 2026-05-07 10:51 | 46.87861 | 6.21187 | 24366 ft | 398 kts | 223° |
| 2026-05-07 10:51 | 46.85798 | 6.18498 | 23834 ft | 396 kts | 223° |
| 2026-05-07 10:51 | 46.83744 | 6.15823 | 23240 ft | 395 kts | 223° |
| 2026-05-07 10:52 | 46.81703 | 6.13169 | 22672 ft | 391 kts | 223° |
| 2026-05-07 10:52 | 46.79677 | 6.10537 | 22121 ft | 388 kts | 223° |
| 2026-05-07 10:52 | 46.77674 | 6.07938 | 21588 ft | 383 kts | 223° |
| 2026-05-07 10:52 | 46.75698 | 6.05376 | 21060 ft | 379 kts | 223° |
| 2026-05-07 10:53 | 46.73730 | 6.02826 | 20525 ft | 378 kts | 223° |
| 2026-05-07 10:53 | 46.71773 | 6.00294 | 20065 ft | 373 kts | 223° |
| 2026-05-07 10:53 | 46.69874 | 5.97840 | 19950 ft | 356 kts | 223° |
| 2026-05-07 10:53 | 46.68062 | 5.95503 | 19853 ft | 340 kts | 222° |
| 2026-05-07 10:54 | 46.66324 | 5.93264 | 19717 ft | 327 kts | 222° |
| 2026-05-07 10:54 | 46.64652 | 5.91118 | 19575 ft | 315 kts | 222° |
| 2026-05-07 10:54 | 46.63039 | 5.89049 | 19434 ft | 304 kts | 223° |
| 2026-05-07 10:54 | 46.61473 | 5.87043 | 19187 ft | 298 kts | 222° |
| 2026-05-07 10:55 | 46.59848 | 5.85187 | 18802 ft | 298 kts | 212° |
| 2026-05-07 10:55 | 46.57947 | 5.84009 | 18433 ft | 298 kts | 194° |
| 2026-05-07 10:55 | 46.55879 | 5.83838 | 18046 ft | 300 kts | 173° |
| 2026-05-07 10:55 | 46.53889 | 5.84734 | 17683 ft | 302 kts | 154° |
| 2026-05-07 10:56 | 46.52092 | 5.86340 | 17329 ft | 304 kts | 147° |
| 2026-05-07 10:56 | 46.50362 | 5.88100 | 16936 ft | 304 kts | 147° |
| 2026-05-07 10:56 | 46.48642 | 5.89870 | 16529 ft | 302 kts | 147° |
| 2026-05-07 10:56 | 46.46931 | 5.91618 | 16134 ft | 300 kts | 147° |
| 2026-05-07 10:57 | 46.45223 | 5.93348 | 15751 ft | 298 kts | 147° |
| 2026-05-07 10:57 | 46.43525 | 5.95060 | 15374 ft | 297 kts | 147° |
| 2026-05-07 10:57 | 46.41835 | 5.96756 | 14995 ft | 295 kts | 147° |
| 2026-05-07 10:57 | 46.40153 | 5.98443 | 14612 ft | 294 kts | 148° |
| 2026-05-07 10:58 | 46.38516 | 6.00211 | 14244 ft | 294 kts | 139° |
| 2026-05-07 10:58 | 46.37262 | 6.02491 | 13853 ft | 295 kts | 118° |
| 2026-05-07 10:58 | 46.36673 | 6.05317 | 13445 ft | 295 kts | 94° |
| 2026-05-07 10:58 | 46.36886 | 6.08240 | 13046 ft | 292 kts | 71° |
| 2026-05-07 10:59 | 46.37841 | 6.10805 | 12665 ft | 290 kts | 50° |
| 2026-05-07 10:59 | 46.39192 | 6.12958 | 12292 ft | 289 kts | 44° |
| 2026-05-07 10:59 | 46.40613 | 6.15006 | 11928 ft | 287 kts | 44° |
| 2026-05-07 10:59 | 46.42029 | 6.17035 | 11534 ft | 286 kts | 44° |
| 2026-05-07 11:00 | 46.43430 | 6.19056 | 11150 ft | 284 kts | 44° |
| 2026-05-07 11:00 | 46.44819 | 6.21082 | 10754 ft | 282 kts | 44° |
| 2026-05-07 11:00 | 46.46194 | 6.23101 | 10368 ft | 281 kts | 45° |
| 2026-05-07 11:00 | 46.47571 | 6.25129 | 10076 ft | 287 kts | 45° |
| 2026-05-07 11:01 | 46.49003 | 6.27231 | 10018 ft | 296 kts | 45° |
| 2026-05-07 11:01 | 46.50454 | 6.29361 | 9994 ft | 293 kts | 45° |
| 2026-05-07 11:01 | 46.51884 | 6.31330 | 9983 ft | 273 kts | 33° |
| 2026-05-07 11:01 | 46.53562 | 6.32321 | 9993 ft | 255 kts | 4° |
| 2026-05-07 11:02 | 46.55278 | 6.32015 | 9999 ft | 250 kts | 334° |
| 2026-05-07 11:02 | 46.56649 | 6.30531 | 10018 ft | 247 kts | 304° |
| 2026-05-07 11:02 | 46.57314 | 6.28276 | 10022 ft | 243 kts | 274° |
| 2026-05-07 11:02 | 46.57100 | 6.25879 | 10015 ft | 242 kts | 245° |
| 2026-05-07 11:03 | 46.56154 | 6.23868 | 10016 ft | 243 kts | 228° |
| 2026-05-07 11:03 | 46.54974 | 6.22093 | 10008 ft | 245 kts | 225° |
| 2026-05-07 11:03 | 46.53755 | 6.20353 | 10007 ft | 245 kts | 225° |
| 2026-05-07 11:03 | 46.52537 | 6.18623 | 10005 ft | 245 kts | 225° |
| 2026-05-07 11:04 | 46.51299 | 6.16862 | 10019 ft | 259 kts | 225° |
| 2026-05-07 11:04 | 46.49960 | 6.14962 | 10017 ft | 276 kts | 225° |
| 2026-05-07 11:04 | 46.48578 | 6.13002 | 10007 ft | 279 kts | 225° |
| 2026-05-07 11:04 | 46.47204 | 6.11060 | 10015 ft | 279 kts | 225° |
| 2026-05-07 11:05 | 46.45793 | 6.09064 | 9972 ft | 279 kts | 225° |
| 2026-05-07 11:05 | 46.44426 | 6.07128 | 9846 ft | 278 kts | 225° |
| 2026-05-07 11:05 | 46.43044 | 6.05168 | 9709 ft | 278 kts | 225° |
| 2026-05-07 11:05 | 46.41663 | 6.03204 | 9567 ft | 279 kts | 225° |
| 2026-05-07 11:06 | 46.40288 | 6.01226 | 9448 ft | 278 kts | 224° |
| 2026-05-07 11:06 | 46.38925 | 5.99241 | 9315 ft | 278 kts | 225° |
| 2026-05-07 11:06 | 46.37562 | 5.97254 | 9186 ft | 277 kts | 225° |
| 2026-05-07 11:06 | 46.36204 | 5.95274 | 9048 ft | 277 kts | 225° |
| 2026-05-07 11:07 | 46.34844 | 5.93295 | 8911 ft | 277 kts | 225° |
| 2026-05-07 11:07 | 46.33481 | 5.91315 | 8787 ft | 278 kts | 225° |
| 2026-05-07 11:07 | 46.32121 | 5.89338 | 8652 ft | 277 kts | 225° |
| 2026-05-07 11:07 | 46.30764 | 5.87366 | 8522 ft | 275 kts | 225° |
| 2026-05-07 11:08 | 46.29418 | 5.85409 | 8388 ft | 275 kts | 225° |
| 2026-05-07 11:08 | 46.28068 | 5.83450 | 8263 ft | 275 kts | 225° |
| 2026-05-07 11:08 | 46.26716 | 5.81490 | 8132 ft | 275 kts | 225° |
| 2026-05-07 11:08 | 46.25365 | 5.79530 | 8031 ft | 275 kts | 225° |
| 2026-05-07 11:09 | 46.24020 | 5.77578 | 8015 ft | 274 kts | 225° |
| 2026-05-07 11:09 | 46.22679 | 5.75627 | 8015 ft | 273 kts | 225° |
| 2026-05-07 11:09 | 46.21339 | 5.73685 | 8017 ft | 274 kts | 225° |
| 2026-05-07 11:09 | 46.19989 | 5.71731 | 8015 ft | 275 kts | 225° |
| 2026-05-07 11:10 | 46.18634 | 5.69778 | 8002 ft | 274 kts | 223° |
| 2026-05-07 11:10 | 46.17143 | 5.68176 | 7768 ft | 262 kts | 207° |
| 2026-05-07 11:10 | 46.15464 | 5.67353 | 7594 ft | 250 kts | 187° |
| 2026-05-07 11:10 | 46.13764 | 5.67451 | 7322 ft | 245 kts | 165° |
| 2026-05-07 11:11 | 46.12257 | 5.68535 | 7049 ft | 241 kts | 146° |
| 2026-05-07 11:11 | 46.10926 | 5.69978 | 7045 ft | 239 kts | 142° |
| 2026-05-07 11:11 | 46.09625 | 5.71473 | 7021 ft | 240 kts | 142° |
| 2026-05-07 11:11 | 46.08321 | 5.72979 | 7007 ft | 241 kts | 142° |
| 2026-05-07 11:12 | 46.07010 | 5.74488 | 7005 ft | 241 kts | 142° |
| 2026-05-07 11:12 | 46.05698 | 5.75992 | 7012 ft | 241 kts | 142° |
| 2026-05-07 11:12 | 46.04542 | 5.77770 | 6976 ft | 239 kts | 118° |
| 2026-05-07 11:12 | 46.04242 | 5.80007 | 6803 ft | 225 kts | 84° |
| 2026-05-07 11:13 | 46.04614 | 5.82172 | 6546 ft | 223 kts | 68° |
| 2026-05-07 11:13 | 46.05419 | 5.84032 | 6277 ft | 223 kts | 49° |
| 2026-05-07 11:13 | 46.06494 | 5.85610 | 5988 ft | 218 kts | 44° |
| 2026-05-07 11:13 | 46.07232 | 5.86632 | 5784 ft | 217 kts | 44° |
| 2026-05-07 11:14 | 46.08273 | 5.88141 | 5466 ft | 209 kts | 45° |
| 2026-05-07 11:14 | 46.09586 | 5.90076 | 5116 ft | 200 kts | 45° |
| 2026-05-07 11:14 | 46.10554 | 5.91488 | 4854 ft | 197 kts | 44° |
| 2026-05-07 11:14 | 46.11203 | 5.92434 | 4677 ft | 197 kts | 44° |
| 2026-05-07 11:15 | 46.12168 | 5.93844 | 4405 ft | 200 kts | 44° |
| 2026-05-07 11:15 | 46.13148 | 5.95277 | 4139 ft | 201 kts | 44° |
| 2026-05-07 11:15 | 46.14141 | 5.96735 | 3868 ft | 206 kts | 44° |
| 2026-05-07 11:15 | 46.15136 | 5.98194 | 3587 ft | 202 kts | 44° |
| 2026-05-07 11:16 | 46.16108 | 5.99614 | 3318 ft | 196 kts | 44° |
| 2026-05-07 11:16 | 46.17044 | 6.00984 | 3065 ft | 186 kts | 44° |
| 2026-05-07 11:16 | 46.17919 | 6.02268 | 2815 ft | 172 kts | 44° |
| 2026-05-07 11:16 | 46.18736 | 6.03464 | 2598 ft | 165 kts | 44° |
| 2026-05-07 11:17 | 46.19507 | 6.04595 | 2380 ft | 151 kts | 44° |
| 2026-05-07 11:17 | 46.20212 | 6.05628 | 2171 ft | 139 kts | 45° |
| 2026-05-07 11:17 | 46.20876 | 6.06597 | 1989 ft | 134 kts | 45° |
| 2026-05-07 11:17 | 46.21523 | 6.07556 | 1805 ft | 133 kts | 47° |
| 2026-05-07 11:18 | 46.22171 | 6.08499 | 1618 ft | 133 kts | 47° |
| 2026-05-07 11:18 | 46.22817 | 6.09443 | 1436 ft | 131 kts | 45° |
| 2026-05-07 11:18 | 46.23390 | 6.10291 | 1407 ft | 96 kts | 45° |
| 2026-05-07 11:18 | 46.23732 | 6.10788 | 1404 ft | 48 kts | 45° |
| 2026-05-07 11:19 | 46.23855 | 6.10979 | 1409 ft | 13 kts | 64° |
| 2026-05-07 11:19 | 46.23812 | 6.11075 | 1408 ft | 14 kts | 167° |
| 2026-05-07 11:19 | 46.23772 | 6.11086 | 1406 ft | 0 kts | 170° |
| 2026-05-07 11:20 | 46.23764 | 6.11087 | 1405 ft | 6 kts | 170° |
| 2026-05-07 11:20 | 46.23699 | 6.11068 | 1401 ft | 12 kts | 214° |
| 2026-05-07 11:20 | 46.23632 | 6.10974 | 1407 ft | 14 kts | 229° |
| 2026-05-07 11:21 | 46.23566 | 6.10874 | 1406 ft | 14 kts | 225° |
| 2026-05-07 11:21 | 46.23496 | 6.10771 | 1396 ft | 15 kts | 225° |
| 2026-05-07 11:21 | 46.23418 | 6.10661 | 1402 ft | 16 kts | 224° |
| 2026-05-07 11:21 | 46.23337 | 6.10550 | 1404 ft | 16 kts | 225° |
| 2026-05-07 11:22 | 46.23255 | 6.10431 | 1401 ft | 17 kts | 225° |
| 2026-05-07 11:22 | 46.23175 | 6.10313 | 1396 ft | 16 kts | 225° |
| 2026-05-07 11:22 | 46.23097 | 6.10187 | 1406 ft | 15 kts | 226° |
| 2026-05-07 11:22 | 46.23062 | 6.10166 | 1403 ft | 4 kts | 169° |
| 2026-05-07 11:23 | 46.23031 | 6.10195 | 1407 ft | 6 kts | 139° |
| 2026-05-07 11:23 | 46.22993 | 6.10251 | 1407 ft | 9 kts | 134° |
| 2026-05-07 11:23 | 46.22951 | 6.10314 | 1408 ft | 7 kts | 119° |
| 2026-05-07 11:23 | 46.22956 | 6.10355 | 1404 ft | 1 kts | 28° |
| 2026-05-07 11:24 | 46.22977 | 6.10351 | 1403 ft | 6 kts | 354° |
| 2026-05-07 11:24 | 46.23007 | 6.10350 | 1397 ft | 0 kts | 0° |
| 2026-05-07 11:24 | 46.23009 | 6.10350 | 1397 ft | 1 kts | 0° |
| 2026-05-07 11:24 | 46.23016 | 6.10350 | 1400 ft | 0 kts | 1° |